sensor_id;sensor_type;location;lat;lon;timestamp;P1;durP1;ratioP1;P2;durP2;ratioP2
57155;SDS011;43023;59.928;10.682;2023-08-07T00:01:16;1.33;;;1.10;;
57155;SDS011;43023;59.928;10.682;2023-08-07T00:03:42;1.88;;;1.10;;
57155;SDS011;43023;59.928;10.682;2023-08-07T00:06:08;1.52;;;1.20;;
57155;SDS011;43023;59.928;10.682;2023-08-07T00:08:34;1.52;;;1.25;;
57155;SDS011;43023;59.928;10.682;2023-08-07T00:11:06;1.10;;;0.80;;
57155;SDS011;43023;59.928;10.682;2023-08-07T00:13:32;1.27;;;1.10;;
57155;SDS011;43023;59.928;10.682;2023-08-07T00:15:58;1.00;;;0.70;;
57155;SDS011;43023;59.928;10.682;2023-08-07T00:18:25;1.50;;;1.10;;
57155;SDS011;43023;59.928;10.682;2023-08-07T00:20:51;1.92;;;0.93;;
57155;SDS011;43023;59.928;10.682;2023-08-07T00:23:17;1.23;;;0.95;;
57155;SDS011;43023;59.928;10.682;2023-08-07T00:25:43;0.80;;;0.68;;
57155;SDS011;43023;59.928;10.682;2023-08-07T00:28:09;1.50;;;1.00;;
57155;SDS011;43023;59.928;10.682;2023-08-07T00:30:35;0.82;;;0.82;;
57155;SDS011;43023;59.928;10.682;2023-08-07T00:33:01;0.82;;;0.77;;
57155;SDS011;43023;59.928;10.682;2023-08-07T00:35:27;1.08;;;0.75;;
57155;SDS011;43023;59.928;10.682;2023-08-07T00:37:54;1.48;;;1.00;;
57155;SDS011;43023;59.928;10.682;2023-08-07T00:40:20;1.33;;;0.98;;
57155;SDS011;43023;59.928;10.682;2023-08-07T00:42:46;1.42;;;1.08;;
57155;SDS011;43023;59.928;10.682;2023-08-07T00:45:12;0.85;;;0.65;;
57155;SDS011;43023;59.928;10.682;2023-08-07T00:47:38;1.00;;;0.85;;
57155;SDS011;43023;59.928;10.682;2023-08-07T00:50:04;1.38;;;1.10;;
57155;SDS011;43023;59.928;10.682;2023-08-07T00:52:31;1.00;;;0.90;;
57155;SDS011;43023;59.928;10.682;2023-08-07T00:54:58;2.17;;;0.70;;
57155;SDS011;43023;59.928;10.682;2023-08-07T00:57:24;1.08;;;0.77;;
57155;SDS011;43023;59.928;10.682;2023-08-07T00:59:50;1.15;;;0.80;;
57155;SDS011;43023;59.928;10.682;2023-08-07T01:02:17;0.82;;;0.80;;
57155;SDS011;43023;59.928;10.682;2023-08-07T01:04:43;0.80;;;0.80;;
57155;SDS011;43023;59.928;10.682;2023-08-07T01:07:09;2.95;;;1.25;;
57155;SDS011;43023;59.928;10.682;2023-08-07T01:09:35;0.80;;;0.80;;
57155;SDS011;43023;59.928;10.682;2023-08-07T01:12:10;0.77;;;0.60;;
57155;SDS011;43023;59.928;10.682;2023-08-07T01:17:15;0.82;;;0.77;;
57155;SDS011;43023;59.928;10.682;2023-08-07T01:19:41;0.73;;;0.73;;
57155;SDS011;43023;59.928;10.682;2023-08-07T01:24:37;0.88;;;0.88;;
57155;SDS011;43023;59.928;10.682;2023-08-07T01:29:55;1.88;;;1.10;;
57155;SDS011;43023;59.928;10.682;2023-08-07T01:35:06;2.15;;;0.88;;
57155;SDS011;43023;59.928;10.682;2023-08-07T01:37:34;0.80;;;0.70;;
57155;SDS011;43023;59.928;10.682;2023-08-07T01:40:00;0.70;;;0.70;;
57155;SDS011;43023;59.928;10.682;2023-08-07T01:42:29;1.63;;;1.13;;
57155;SDS011;43023;59.928;10.682;2023-08-07T01:44:55;0.70;;;0.70;;
57155;SDS011;43023;59.928;10.682;2023-08-07T01:47:21;1.13;;;0.85;;
57155;SDS011;43023;59.928;10.682;2023-08-07T01:49:47;2.47;;;0.90;;
57155;SDS011;43023;59.928;10.682;2023-08-07T01:52:13;1.15;;;0.68;;
57155;SDS011;43023;59.928;10.682;2023-08-07T01:54:39;1.42;;;0.80;;
57155;SDS011;43023;59.928;10.682;2023-08-07T01:57:06;1.20;;;1.10;;
57155;SDS011;43023;59.928;10.682;2023-08-07T01:59:32;1.38;;;0.60;;
57155;SDS011;43023;59.928;10.682;2023-08-07T02:01:58;1.50;;;0.80;;
57155;SDS011;43023;59.928;10.682;2023-08-07T02:04:24;0.65;;;0.65;;
57155;SDS011;43023;59.928;10.682;2023-08-07T02:06:50;0.60;;;0.60;;
57155;SDS011;43023;59.928;10.682;2023-08-07T02:09:16;1.48;;;0.82;;
57155;SDS011;43023;59.928;10.682;2023-08-07T02:11:42;0.73;;;0.68;;
57155;SDS011;43023;59.928;10.682;2023-08-07T02:14:09;0.47;;;0.47;;
57155;SDS011;43023;59.928;10.682;2023-08-07T02:16:35;0.65;;;0.65;;
57155;SDS011;43023;59.928;10.682;2023-08-07T02:19:02;0.95;;;0.70;;
57155;SDS011;43023;59.928;10.682;2023-08-07T02:21:28;2.15;;;0.65;;
57155;SDS011;43023;59.928;10.682;2023-08-07T02:23:54;0.47;;;0.47;;
57155;SDS011;43023;59.928;10.682;2023-08-07T02:26:20;1.77;;;1.00;;
57155;SDS011;43023;59.928;10.682;2023-08-07T02:28:46;1.77;;;0.65;;
57155;SDS011;43023;59.928;10.682;2023-08-07T02:31:12;0.77;;;0.77;;
57155;SDS011;43023;59.928;10.682;2023-08-07T02:33:38;0.70;;;0.70;;
57155;SDS011;43023;59.928;10.682;2023-08-07T02:36:06;0.60;;;0.60;;
57155;SDS011;43023;59.928;10.682;2023-08-07T02:38:32;1.70;;;0.80;;
57155;SDS011;43023;59.928;10.682;2023-08-07T02:40:58;3.10;;;0.73;;
57155;SDS011;43023;59.928;10.682;2023-08-07T02:43:24;0.77;;;0.68;;
57155;SDS011;43023;59.928;10.682;2023-08-07T02:45:53;0.68;;;0.68;;
57155;SDS011;43023;59.928;10.682;2023-08-07T02:48:19;0.60;;;0.60;;
57155;SDS011;43023;59.928;10.682;2023-08-07T02:50:46;0.57;;;0.55;;
57155;SDS011;43023;59.928;10.682;2023-08-07T02:53:12;0.65;;;0.60;;
57155;SDS011;43023;59.928;10.682;2023-08-07T02:55:38;0.68;;;0.68;;
57155;SDS011;43023;59.928;10.682;2023-08-07T02:58:04;0.93;;;0.73;;
57155;SDS011;43023;59.928;10.682;2023-08-07T03:00:30;1.30;;;0.68;;
57155;SDS011;43023;59.928;10.682;2023-08-07T03:02:56;0.60;;;0.52;;
57155;SDS011;43023;59.928;10.682;2023-08-07T03:05:22;0.70;;;0.57;;
57155;SDS011;43023;59.928;10.682;2023-08-07T03:07:48;0.57;;;0.57;;
57155;SDS011;43023;59.928;10.682;2023-08-07T03:10:14;0.60;;;0.60;;
57155;SDS011;43023;59.928;10.682;2023-08-07T03:12:40;0.77;;;0.70;;
57155;SDS011;43023;59.928;10.682;2023-08-07T03:15:06;0.60;;;0.60;;
57155;SDS011;43023;59.928;10.682;2023-08-07T03:17:33;0.50;;;0.50;;
57155;SDS011;43023;59.928;10.682;2023-08-07T03:19:59;0.50;;;0.50;;
57155;SDS011;43023;59.928;10.682;2023-08-07T03:22:25;1.30;;;0.77;;
57155;SDS011;43023;59.928;10.682;2023-08-07T03:24:51;0.73;;;0.73;;
57155;SDS011;43023;59.928;10.682;2023-08-07T03:27:17;0.82;;;0.82;;
57155;SDS011;43023;59.928;10.682;2023-08-07T03:29:43;0.55;;;0.55;;
57155;SDS011;43023;59.928;10.682;2023-08-07T03:32:09;0.50;;;0.50;;
57155;SDS011;43023;59.928;10.682;2023-08-07T03:34:35;1.85;;;0.57;;
57155;SDS011;43023;59.928;10.682;2023-08-07T03:37:01;0.52;;;0.50;;
57155;SDS011;43023;59.928;10.682;2023-08-07T03:39:29;0.47;;;0.47;;
57155;SDS011;43023;59.928;10.682;2023-08-07T03:41:55;0.80;;;0.40;;
57155;SDS011;43023;59.928;10.682;2023-08-07T03:44:21;0.70;;;0.70;;
57155;SDS011;43023;59.928;10.682;2023-08-07T03:46:47;1.00;;;0.50;;
57155;SDS011;43023;59.928;10.682;2023-08-07T03:49:13;0.40;;;0.32;;
57155;SDS011;43023;59.928;10.682;2023-08-07T03:51:39;0.60;;;0.60;;
57155;SDS011;43023;59.928;10.682;2023-08-07T03:54:05;0.60;;;0.57;;
57155;SDS011;43023;59.928;10.682;2023-08-07T03:56:31;0.70;;;0.60;;
57155;SDS011;43023;59.928;10.682;2023-08-07T03:59:01;0.52;;;0.52;;
57155;SDS011;43023;59.928;10.682;2023-08-07T04:01:28;0.50;;;0.40;;
57155;SDS011;43023;59.928;10.682;2023-08-07T04:03:54;0.35;;;0.32;;
57155;SDS011;43023;59.928;10.682;2023-08-07T04:06:20;1.00;;;0.70;;
57155;SDS011;43023;59.928;10.682;2023-08-07T04:08:46;1.08;;;0.38;;
57155;SDS011;43023;59.928;10.682;2023-08-07T04:11:12;0.45;;;0.40;;
57155;SDS011;43023;59.928;10.682;2023-08-07T04:13:39;0.30;;;0.30;;
57155;SDS011;43023;59.928;10.682;2023-08-07T04:16:05;0.40;;;0.40;;
57155;SDS011;43023;59.928;10.682;2023-08-07T04:18:31;0.32;;;0.32;;
57155;SDS011;43023;59.928;10.682;2023-08-07T04:20:58;0.50;;;0.47;;
57155;SDS011;43023;59.928;10.682;2023-08-07T04:23:24;1.15;;;0.70;;
57155;SDS011;43023;59.928;10.682;2023-08-07T04:25:51;1.13;;;0.75;;
57155;SDS011;43023;59.928;10.682;2023-08-07T04:28:17;0.73;;;0.30;;
57155;SDS011;43023;59.928;10.682;2023-08-07T04:30:44;0.70;;;0.70;;
57155;SDS011;43023;59.928;10.682;2023-08-07T04:33:10;0.50;;;0.50;;
57155;SDS011;43023;59.928;10.682;2023-08-07T04:35:37;0.43;;;0.43;;
57155;SDS011;43023;59.928;10.682;2023-08-07T04:38:03;0.43;;;0.43;;
57155;SDS011;43023;59.928;10.682;2023-08-07T04:40:29;0.32;;;0.32;;
57155;SDS011;43023;59.928;10.682;2023-08-07T04:42:56;2.15;;;0.25;;
57155;SDS011;43023;59.928;10.682;2023-08-07T04:45:22;0.55;;;0.30;;
57155;SDS011;43023;59.928;10.682;2023-08-07T04:47:48;0.57;;;0.20;;
57155;SDS011;43023;59.928;10.682;2023-08-07T04:50:14;0.35;;;0.28;;
57155;SDS011;43023;59.928;10.682;2023-08-07T04:52:40;0.45;;;0.40;;
57155;SDS011;43023;59.928;10.682;2023-08-07T04:55:06;0.30;;;0.30;;
57155;SDS011;43023;59.928;10.682;2023-08-07T04:57:32;0.38;;;0.20;;
57155;SDS011;43023;59.928;10.682;2023-08-07T04:59:58;1.05;;;0.20;;
57155;SDS011;43023;59.928;10.682;2023-08-07T05:02:24;0.30;;;0.30;;
57155;SDS011;43023;59.928;10.682;2023-08-07T05:04:50;0.57;;;0.40;;
57155;SDS011;43023;59.928;10.682;2023-08-07T05:07:17;0.20;;;0.20;;
57155;SDS011;43023;59.928;10.682;2023-08-07T05:09:43;2.50;;;0.40;;
57155;SDS011;43023;59.928;10.682;2023-08-07T05:12:09;0.88;;;0.13;;
57155;SDS011;43023;59.928;10.682;2023-08-07T05:14:35;0.17;;;0.17;;
57155;SDS011;43023;59.928;10.682;2023-08-07T05:17:01;0.40;;;0.30;;
57155;SDS011;43023;59.928;10.682;2023-08-07T05:19:27;1.05;;;0.47;;
57155;SDS011;43023;59.928;10.682;2023-08-07T05:21:53;2.38;;;0.55;;
57155;SDS011;43023;59.928;10.682;2023-08-07T05:24:19;0.73;;;0.30;;
57155;SDS011;43023;59.928;10.682;2023-08-07T05:26:45;0.43;;;0.28;;
57155;SDS011;43023;59.928;10.682;2023-08-07T05:29:11;0.30;;;0.25;;
57155;SDS011;43023;59.928;10.682;2023-08-07T05:31:38;0.30;;;0.30;;
57155;SDS011;43023;59.928;10.682;2023-08-07T05:34:04;1.15;;;0.40;;
57155;SDS011;43023;59.928;10.682;2023-08-07T05:36:30;0.55;;;0.40;;
57155;SDS011;43023;59.928;10.682;2023-08-07T05:38:57;0.60;;;0.38;;
57155;SDS011;43023;59.928;10.682;2023-08-07T05:41:24;0.32;;;0.30;;
57155;SDS011;43023;59.928;10.682;2023-08-07T05:43:50;1.13;;;0.30;;
57155;SDS011;43023;59.928;10.682;2023-08-07T05:46:16;0.95;;;0.30;;
57155;SDS011;43023;59.928;10.682;2023-08-07T05:48:42;2.25;;;0.30;;
57155;SDS011;43023;59.928;10.682;2023-08-07T05:51:08;1.33;;;0.47;;
57155;SDS011;43023;59.928;10.682;2023-08-07T05:53:34;4.78;;;0.50;;
57155;SDS011;43023;59.928;10.682;2023-08-07T05:56:01;2.72;;;0.60;;
57155;SDS011;43023;59.928;10.682;2023-08-07T05:58:28;2.45;;;0.77;;
57155;SDS011;43023;59.928;10.682;2023-08-07T06:00:54;2.55;;;0.60;;
57155;SDS011;43023;59.928;10.682;2023-08-07T06:03:20;0.77;;;0.40;;
57155;SDS011;43023;59.928;10.682;2023-08-07T06:05:46;0.30;;;0.28;;
57155;SDS011;43023;59.928;10.682;2023-08-07T06:08:12;1.15;;;0.22;;
57155;SDS011;43023;59.928;10.682;2023-08-07T06:10:38;4.25;;;0.55;;
57155;SDS011;43023;59.928;10.682;2023-08-07T06:13:04;4.93;;;0.30;;
57155;SDS011;43023;59.928;10.682;2023-08-07T06:15:31;1.38;;;0.47;;
57155;SDS011;43023;59.928;10.682;2023-08-07T06:17:58;0.38;;;0.38;;
57155;SDS011;43023;59.928;10.682;2023-08-07T06:20:24;2.60;;;0.40;;
57155;SDS011;43023;59.928;10.682;2023-08-07T06:22:50;1.45;;;0.30;;
57155;SDS011;43023;59.928;10.682;2023-08-07T06:25:16;3.03;;;0.88;;
57155;SDS011;43023;59.928;10.682;2023-08-07T06:27:44;2.72;;;0.57;;
57155;SDS011;43023;59.928;10.682;2023-08-07T06:30:10;4.28;;;0.73;;
57155;SDS011;43023;59.928;10.682;2023-08-07T06:32:37;4.05;;;0.50;;
57155;SDS011;43023;59.928;10.682;2023-08-07T06:35:03;1.88;;;0.47;;
57155;SDS011;43023;59.928;10.682;2023-08-07T06:37:30;2.08;;;0.50;;
57155;SDS011;43023;59.928;10.682;2023-08-07T06:39:56;2.05;;;0.60;;
57155;SDS011;43023;59.928;10.682;2023-08-07T06:42:22;1.85;;;0.55;;
57155;SDS011;43023;59.928;10.682;2023-08-07T06:44:48;1.88;;;0.30;;
57155;SDS011;43023;59.928;10.682;2023-08-07T06:47:14;1.17;;;0.25;;
57155;SDS011;43023;59.928;10.682;2023-08-07T06:49:40;3.72;;;0.73;;
57155;SDS011;43023;59.928;10.682;2023-08-07T06:52:06;0.55;;;0.40;;
57155;SDS011;43023;59.928;10.682;2023-08-07T06:54:32;1.35;;;0.40;;
57155;SDS011;43023;59.928;10.682;2023-08-07T06:56:58;2.13;;;0.38;;
57155;SDS011;43023;59.928;10.682;2023-08-07T06:59:24;1.38;;;0.40;;
57155;SDS011;43023;59.928;10.682;2023-08-07T07:01:51;0.68;;;0.40;;
57155;SDS011;43023;59.928;10.682;2023-08-07T07:04:17;1.15;;;0.35;;
57155;SDS011;43023;59.928;10.682;2023-08-07T07:06:43;1.38;;;0.30;;
57155;SDS011;43023;59.928;10.682;2023-08-07T07:09:09;1.75;;;0.40;;
57155;SDS011;43023;59.928;10.682;2023-08-07T07:11:35;0.90;;;0.30;;
57155;SDS011;43023;59.928;10.682;2023-08-07T07:14:02;1.88;;;0.40;;
57155;SDS011;43023;59.928;10.682;2023-08-07T07:16:29;4.93;;;0.45;;
57155;SDS011;43023;59.928;10.682;2023-08-07T07:18:55;1.75;;;0.32;;
57155;SDS011;43023;59.928;10.682;2023-08-07T07:21:23;2.72;;;0.30;;
57155;SDS011;43023;59.928;10.682;2023-08-07T07:23:49;1.67;;;0.30;;
57155;SDS011;43023;59.928;10.682;2023-08-07T07:26:15;0.50;;;0.17;;
57155;SDS011;43023;59.928;10.682;2023-08-07T07:28:41;0.93;;;0.22;;
57155;SDS011;43023;59.928;10.682;2023-08-07T07:31:07;0.20;;;0.20;;
57155;SDS011;43023;59.928;10.682;2023-08-07T07:33:36;0.82;;;0.30;;
57155;SDS011;43023;59.928;10.682;2023-08-07T07:36:04;1.58;;;0.35;;
57155;SDS011;43023;59.928;10.682;2023-08-07T07:38:31;0.45;;;0.20;;
57155;SDS011;43023;59.928;10.682;2023-08-07T07:40:57;0.95;;;0.30;;
57155;SDS011;43023;59.928;10.682;2023-08-07T07:43:23;0.68;;;0.40;;
57155;SDS011;43023;59.928;10.682;2023-08-07T07:45:49;0.68;;;0.30;;
57155;SDS011;43023;59.928;10.682;2023-08-07T07:48:15;0.20;;;0.20;;
57155;SDS011;43023;59.928;10.682;2023-08-07T07:50:42;0.20;;;0.20;;
57155;SDS011;43023;59.928;10.682;2023-08-07T07:53:08;1.33;;;0.40;;
57155;SDS011;43023;59.928;10.682;2023-08-07T07:55:34;0.10;;;0.10;;
57155;SDS011;43023;59.928;10.682;2023-08-07T07:58:00;0.20;;;0.20;;
57155;SDS011;43023;59.928;10.682;2023-08-07T08:00:26;0.65;;;0.20;;
57155;SDS011;43023;59.928;10.682;2023-08-07T08:02:52;0.43;;;0.10;;
57155;SDS011;43023;59.928;10.682;2023-08-07T08:05:18;0.43;;;0.25;;
57155;SDS011;43023;59.928;10.682;2023-08-07T08:07:45;1.45;;;0.25;;
57155;SDS011;43023;59.928;10.682;2023-08-07T08:10:11;1.10;;;0.63;;
57155;SDS011;43023;59.928;10.682;2023-08-07T08:12:38;0.70;;;0.25;;
57155;SDS011;43023;59.928;10.682;2023-08-07T08:15:04;1.98;;;0.47;;
57155;SDS011;43023;59.928;10.682;2023-08-07T08:17:30;0.35;;;0.30;;
57155;SDS011;43023;59.928;10.682;2023-08-07T08:19:57;1.45;;;0.30;;
57155;SDS011;43023;59.928;10.682;2023-08-07T08:22:23;0.20;;;0.17;;
57155;SDS011;43023;59.928;10.682;2023-08-07T08:24:49;1.73;;;0.20;;
57155;SDS011;43023;59.928;10.682;2023-08-07T08:27:15;0.10;;;0.10;;
57155;SDS011;43023;59.928;10.682;2023-08-07T08:29:42;0.50;;;0.35;;
57155;SDS011;43023;59.928;10.682;2023-08-07T08:32:10;0.10;;;0.10;;
57155;SDS011;43023;59.928;10.682;2023-08-07T08:34:42;2.55;;;0.43;;
57155;SDS011;43023;59.928;10.682;2023-08-07T08:37:08;0.45;;;0.20;;
57155;SDS011;43023;59.928;10.682;2023-08-07T08:39:36;0.85;;;0.38;;
57155;SDS011;43023;59.928;10.682;2023-08-07T08:42:02;1.00;;;0.20;;
57155;SDS011;43023;59.928;10.682;2023-08-07T08:44:28;0.40;;;0.20;;
57155;SDS011;43023;59.928;10.682;2023-08-07T08:46:55;0.32;;;0.22;;
57155;SDS011;43023;59.928;10.682;2023-08-07T08:49:28;0.30;;;0.30;;
57155;SDS011;43023;59.928;10.682;2023-08-07T08:51:56;0.43;;;0.30;;
57155;SDS011;43023;59.928;10.682;2023-08-07T08:54:23;0.98;;;0.20;;
57155;SDS011;43023;59.928;10.682;2023-08-07T08:56:50;0.77;;;0.20;;
57155;SDS011;43023;59.928;10.682;2023-08-07T08:59:16;0.52;;;0.30;;
57155;SDS011;43023;59.928;10.682;2023-08-07T09:01:44;1.00;;;0.10;;
57155;SDS011;43023;59.928;10.682;2023-08-07T09:04:10;1.75;;;0.17;;
57155;SDS011;43023;59.928;10.682;2023-08-07T09:06:36;0.30;;;0.30;;
57155;SDS011;43023;59.928;10.682;2023-08-07T09:09:03;0.10;;;0.10;;
57155;SDS011;43023;59.928;10.682;2023-08-07T09:11:29;0.47;;;0.17;;
57155;SDS011;43023;59.928;10.682;2023-08-07T09:13:56;2.55;;;0.20;;
57155;SDS011;43023;59.928;10.682;2023-08-07T09:16:23;2.63;;;0.20;;
57155;SDS011;43023;59.928;10.682;2023-08-07T09:18:50;1.08;;;0.43;;
57155;SDS011;43023;59.928;10.682;2023-08-07T09:21:16;0.10;;;0.10;;
57155;SDS011;43023;59.928;10.682;2023-08-07T09:23:43;0.20;;;0.10;;
57155;SDS011;43023;59.928;10.682;2023-08-07T09:26:09;0.08;;;0.08;;
57155;SDS011;43023;59.928;10.682;2023-08-07T09:28:36;0.50;;;0.10;;
57155;SDS011;43023;59.928;10.682;2023-08-07T09:31:02;0.30;;;0.13;;
57155;SDS011;43023;59.928;10.682;2023-08-07T09:33:31;0.25;;;0.20;;
57155;SDS011;43023;59.928;10.682;2023-08-07T09:35:58;0.55;;;0.10;;
57155;SDS011;43023;59.928;10.682;2023-08-07T09:38:27;1.27;;;0.20;;
57155;SDS011;43023;59.928;10.682;2023-08-07T09:40:57;1.55;;;0.50;;
57155;SDS011;43023;59.928;10.682;2023-08-07T09:43:23;0.40;;;0.15;;
57155;SDS011;43023;59.928;10.682;2023-08-07T09:45:49;0.10;;;0.10;;
57155;SDS011;43023;59.928;10.682;2023-08-07T09:48:22;0.17;;;0.10;;
57155;SDS011;43023;59.928;10.682;2023-08-07T09:50:49;1.10;;;0.20;;
57155;SDS011;43023;59.928;10.682;2023-08-07T09:53:16;1.17;;;0.35;;
57155;SDS011;43023;59.928;10.682;2023-08-07T09:55:42;0.43;;;0.08;;
57155;SDS011;43023;59.928;10.682;2023-08-07T09:58:08;0.95;;;0.20;;
57155;SDS011;43023;59.928;10.682;2023-08-07T10:00:38;0.40;;;0.22;;
57155;SDS011;43023;59.928;10.682;2023-08-07T10:03:06;0.45;;;0.20;;
57155;SDS011;43023;59.928;10.682;2023-08-07T10:05:32;0.20;;;0.20;;
57155;SDS011;43023;59.928;10.682;2023-08-07T10:07:58;2.08;;;0.40;;
57155;SDS011;43023;59.928;10.682;2023-08-07T10:10:25;1.35;;;0.43;;
57155;SDS011;43023;59.928;10.682;2023-08-07T10:12:52;0.35;;;0.10;;
57155;SDS011;43023;59.928;10.682;2023-08-07T10:15:19;0.20;;;0.13;;
57155;SDS011;43023;59.928;10.682;2023-08-07T10:17:45;0.22;;;0.22;;
57155;SDS011;43023;59.928;10.682;2023-08-07T10:20:12;1.75;;;0.20;;
57155;SDS011;43023;59.928;10.682;2023-08-07T10:22:38;0.20;;;0.10;;
57155;SDS011;43023;59.928;10.682;2023-08-07T10:25:05;0.55;;;0.50;;
57155;SDS011;43023;59.928;10.682;2023-08-07T10:27:33;0.28;;;0.20;;
57155;SDS011;43023;59.928;10.682;2023-08-07T10:29:59;1.65;;;0.20;;
57155;SDS011;43023;59.928;10.682;2023-08-07T10:32:27;0.25;;;0.20;;
57155;SDS011;43023;59.928;10.682;2023-08-07T10:34:53;0.30;;;0.10;;
57155;SDS011;43023;59.928;10.682;2023-08-07T10:40:05;2.17;;;0.45;;
57155;SDS011;43023;59.928;10.682;2023-08-07T10:45:19;0.20;;;0.20;;
57155;SDS011;43023;59.928;10.682;2023-08-07T10:50:46;0.38;;;0.30;;
57155;SDS011;43023;59.928;10.682;2023-08-07T10:53:21;1.23;;;0.20;;
57155;SDS011;43023;59.928;10.682;2023-08-07T10:55:53;0.32;;;0.20;;
57155;SDS011;43023;59.928;10.682;2023-08-07T10:58:26;1.45;;;0.20;;
57155;SDS011;43023;59.928;10.682;2023-08-07T11:01:15;0.63;;;0.30;;
57155;SDS011;43023;59.928;10.682;2023-08-07T11:03:40;0.77;;;0.30;;
57155;SDS011;43023;59.928;10.682;2023-08-07T11:06:06;1.48;;;0.10;;
57155;SDS011;43023;59.928;10.682;2023-08-07T11:08:34;0.20;;;0.10;;
57155;SDS011;43023;59.928;10.682;2023-08-07T11:11:04;0.40;;;0.10;;
57155;SDS011;43023;59.928;10.682;2023-08-07T11:13:30;0.47;;;0.30;;
57155;SDS011;43023;59.928;10.682;2023-08-07T11:15:56;0.20;;;0.20;;
57155;SDS011;43023;59.928;10.682;2023-08-07T11:18:23;0.30;;;0.22;;
57155;SDS011;43023;59.928;10.682;2023-08-07T11:20:49;1.13;;;0.47;;
57155;SDS011;43023;59.928;10.682;2023-08-07T11:23:15;0.68;;;0.30;;
57155;SDS011;43023;59.928;10.682;2023-08-07T11:25:41;0.47;;;0.10;;
57155;SDS011;43023;59.928;10.682;2023-08-07T11:28:07;3.33;;;0.43;;
57155;SDS011;43023;59.928;10.682;2023-08-07T11:30:34;0.30;;;0.17;;
57155;SDS011;43023;59.928;10.682;2023-08-07T11:33:01;0.32;;;0.32;;
57155;SDS011;43023;59.928;10.682;2023-08-07T11:35:27;0.30;;;0.10;;
57155;SDS011;43023;59.928;10.682;2023-08-07T11:37:53;0.55;;;0.10;;
57155;SDS011;43023;59.928;10.682;2023-08-07T11:40:19;0.50;;;0.17;;
57155;SDS011;43023;59.928;10.682;2023-08-07T11:42:46;0.20;;;0.20;;
57155;SDS011;43023;59.928;10.682;2023-08-07T11:45:12;1.02;;;0.28;;
57155;SDS011;43023;59.928;10.682;2023-08-07T11:47:38;0.25;;;0.10;;
57155;SDS011;43023;59.928;10.682;2023-08-07T11:50:05;0.10;;;0.10;;
57155;SDS011;43023;59.928;10.682;2023-08-07T11:52:31;0.57;;;0.10;;
57155;SDS011;43023;59.928;10.682;2023-08-07T11:54:57;0.70;;;0.10;;
57155;SDS011;43023;59.928;10.682;2023-08-07T11:57:24;0.25;;;0.10;;
57155;SDS011;43023;59.928;10.682;2023-08-07T11:59:50;0.35;;;0.20;;
57155;SDS011;43023;59.928;10.682;2023-08-07T12:02:16;1.75;;;0.50;;
57155;SDS011;43023;59.928;10.682;2023-08-07T12:04:48;0.20;;;0.20;;
57155;SDS011;43023;59.928;10.682;2023-08-07T12:07:16;0.10;;;0.10;;
57155;SDS011;43023;59.928;10.682;2023-08-07T12:09:44;0.20;;;0.10;;
57155;SDS011;43023;59.928;10.682;2023-08-07T12:12:11;0.47;;;0.10;;
57155;SDS011;43023;59.928;10.682;2023-08-07T12:14:38;0.20;;;0.10;;
57155;SDS011;43023;59.928;10.682;2023-08-07T12:17:05;0.10;;;0.10;;
57155;SDS011;43023;59.928;10.682;2023-08-07T12:19:40;0.20;;;0.10;;
57155;SDS011;43023;59.928;10.682;2023-08-07T12:22:09;0.10;;;0.10;;
57155;SDS011;43023;59.928;10.682;2023-08-07T12:24:35;0.73;;;0.28;;
57155;SDS011;43023;59.928;10.682;2023-08-07T12:27:03;0.10;;;0.10;;
57155;SDS011;43023;59.928;10.682;2023-08-07T12:29:29;0.00;;;0.00;;
57155;SDS011;43023;59.928;10.682;2023-08-07T12:31:55;0.20;;;0.10;;
57155;SDS011;43023;59.928;10.682;2023-08-07T12:34:23;0.47;;;0.20;;
57155;SDS011;43023;59.928;10.682;2023-08-07T12:36:50;0.25;;;0.20;;
57155;SDS011;43023;59.928;10.682;2023-08-07T12:39:16;0.10;;;0.10;;
57155;SDS011;43023;59.928;10.682;2023-08-07T12:41:42;0.68;;;0.25;;
57155;SDS011;43023;59.928;10.682;2023-08-07T12:44:08;0.00;;;0.00;;
57155;SDS011;43023;59.928;10.682;2023-08-07T12:46:34;0.10;;;0.10;;
57155;SDS011;43023;59.928;10.682;2023-08-07T12:49:03;4.97;;;0.68;;
57155;SDS011;43023;59.928;10.682;2023-08-07T12:51:29;0.30;;;0.30;;
57155;SDS011;43023;59.928;10.682;2023-08-07T12:53:55;0.30;;;0.03;;
57155;SDS011;43023;59.928;10.682;2023-08-07T12:56:21;0.65;;;0.32;;
57155;SDS011;43023;59.928;10.682;2023-08-07T12:58:47;0.10;;;0.10;;
57155;SDS011;43023;59.928;10.682;2023-08-07T13:01:15;1.13;;;0.30;;
57155;SDS011;43023;59.928;10.682;2023-08-07T13:03:41;0.00;;;0.00;;
57155;SDS011;43023;59.928;10.682;2023-08-07T13:06:07;0.30;;;0.17;;
57155;SDS011;43023;59.928;10.682;2023-08-07T13:08:34;0.10;;;0.10;;
57155;SDS011;43023;59.928;10.682;2023-08-07T13:11:00;0.10;;;0.10;;
57155;SDS011;43023;59.928;10.682;2023-08-07T13:13:26;0.35;;;0.10;;
57155;SDS011;43023;59.928;10.682;2023-08-07T13:15:56;0.15;;;0.10;;
57155;SDS011;43023;59.928;10.682;2023-08-07T13:18:22;3.25;;;0.30;;
57155;SDS011;43023;59.928;10.682;2023-08-07T13:20:48;0.88;;;0.10;;
57155;SDS011;43023;59.928;10.682;2023-08-07T13:23:14;0.08;;;0.08;;
57155;SDS011;43023;59.928;10.682;2023-08-07T13:25:40;0.20;;;0.10;;
57155;SDS011;43023;59.928;10.682;2023-08-07T13:28:06;0.28;;;0.13;;
57155;SDS011;43023;59.928;10.682;2023-08-07T13:30:33;0.10;;;0.10;;
57155;SDS011;43023;59.928;10.682;2023-08-07T13:32:59;0.15;;;0.10;;
57155;SDS011;43023;59.928;10.682;2023-08-07T13:35:25;1.45;;;0.17;;
57155;SDS011;43023;59.928;10.682;2023-08-07T13:37:51;0.77;;;0.15;;
57155;SDS011;43023;59.928;10.682;2023-08-07T13:40:17;0.10;;;0.10;;
57155;SDS011;43023;59.928;10.682;2023-08-07T13:42:44;0.20;;;0.20;;
57155;SDS011;43023;59.928;10.682;2023-08-07T13:45:10;0.55;;;0.10;;
57155;SDS011;43023;59.928;10.682;2023-08-07T13:47:36;0.22;;;0.22;;
57155;SDS011;43023;59.928;10.682;2023-08-07T13:50:02;0.70;;;0.10;;
57155;SDS011;43023;59.928;10.682;2023-08-07T13:52:29;0.25;;;0.20;;
57155;SDS011;43023;59.928;10.682;2023-08-07T13:54:55;0.10;;;0.10;;
57155;SDS011;43023;59.928;10.682;2023-08-07T13:57:21;0.13;;;0.10;;
57155;SDS011;43023;59.928;10.682;2023-08-07T13:59:47;0.20;;;0.10;;
57155;SDS011;43023;59.928;10.682;2023-08-07T14:02:13;0.20;;;0.20;;
57155;SDS011;43023;59.928;10.682;2023-08-07T14:04:39;0.00;;;0.00;;
57155;SDS011;43023;59.928;10.682;2023-08-07T14:07:10;0.30;;;0.10;;
57155;SDS011;43023;59.928;10.682;2023-08-07T14:09:36;1.48;;;0.20;;
57155;SDS011;43023;59.928;10.682;2023-08-07T14:12:02;0.25;;;0.10;;
57155;SDS011;43023;59.928;10.682;2023-08-07T14:14:28;0.68;;;0.20;;
57155;SDS011;43023;59.928;10.682;2023-08-07T14:16:54;1.10;;;0.10;;
57155;SDS011;43023;59.928;10.682;2023-08-07T14:19:23;0.32;;;0.10;;
57155;SDS011;43023;59.928;10.682;2023-08-07T14:21:49;0.10;;;0.10;;
57155;SDS011;43023;59.928;10.682;2023-08-07T14:24:15;0.20;;;0.10;;
57155;SDS011;43023;59.928;10.682;2023-08-07T14:26:42;0.10;;;0.10;;
57155;SDS011;43023;59.928;10.682;2023-08-07T14:29:08;0.10;;;0.10;;
57155;SDS011;43023;59.928;10.682;2023-08-07T14:31:34;0.73;;;0.30;;
57155;SDS011;43023;59.928;10.682;2023-08-07T14:34:00;0.63;;;0.17;;
57155;SDS011;43023;59.928;10.682;2023-08-07T14:36:26;0.10;;;0.10;;
57155;SDS011;43023;59.928;10.682;2023-08-07T14:38:52;1.13;;;0.30;;
57155;SDS011;43023;59.928;10.682;2023-08-07T14:41:18;0.22;;;0.22;;
57155;SDS011;43023;59.928;10.682;2023-08-07T14:43:45;0.10;;;0.10;;
57155;SDS011;43023;59.928;10.682;2023-08-07T14:46:12;0.50;;;0.10;;
57155;SDS011;43023;59.928;10.682;2023-08-07T14:48:38;0.15;;;0.03;;